»·PEaware :: ASA1263 KLAX-KPDX

ASA1263 :: KLAX-KPDX

FLIGHT INFORMATION

Flight Status: Arrived
Operator:
Alaska Airlines
More flights by this operator :: More flights under this callsign
Pilot: David T. (30525)
Aircraft: AIRBUS A319
(A319)
More flights by this aircraft type
Origin: KLAX Los Angeles Intl
United States
Destination: KPDX Portland Intl
United States
More flights between these airports :: More routes between these airports
Route: LADYJ4 CSTRO NTELL SHIMR GALLO TMBRS2
File this flight plan on PilotEdge
Remarks:
Altitude:
(Current/Filed)
36,000ft
Speed:
(Current/Filed)
450kts
Departed: 19-Jul-20 07:57 PM
Arrived: 19-Jul-20 09:47 PM
Distance/Time
Traveled:
725nm/1:50
Distance/Time
To Go:
Arrived

Flight Plot

Page will automatically refresh every two minutes.


Map Options




Map Legend


Flown Route
Filed Route
Departure Airport
Arrival Airport
Navaid (VOR, NDB)
Fix

Horizontal Profiles

Position Reports

Time Latitude Longitude Heading Altitude Ground
Speed
19-Jul-20 19:38 33.941459 -118.401512 264 114ft 0kts
19-Jul-20 19:39 33.941459 -118.401512 264 114ft 0kts
19-Jul-20 19:40 33.941459 -118.401512 264 114ft 0kts
19-Jul-20 19:41 33.941459 -118.401512 264 114ft 0kts
19-Jul-20 19:42 33.941459 -118.401512 264 114ft 0kts
19-Jul-20 19:43 33.941459 -118.401512 264 114ft 0kts
19-Jul-20 19:44 33.941459 -118.401512 264 114ft 0kts
19-Jul-20 19:45 33.941505 -118.400954 262 114ft 1kts
19-Jul-20 19:46 33.941692 -118.400857 172 114ft 0kts
19-Jul-20 19:47 33.941692 -118.400857 172 114ft 0kts
19-Jul-20 19:48 33.941508 -118.400843 172 114ft 7kts
19-Jul-20 19:49 33.939723 -118.398845 82 114ft 14kts
19-Jul-20 19:50 33.940310 -118.393111 83 114ft 19kts
19-Jul-20 19:51 33.940891 -118.386580 83 114ft 18kts
19-Jul-20 19:52 33.940971 -118.383506 141 114ft 3kts
19-Jul-20 19:53 33.939630 -118.383238 201 114ft 6kts
19-Jul-20 19:54 33.939490 -118.383615 261 114ft 0kts
19-Jul-20 19:55 33.939490 -118.383615 261 114ft 0kts
19-Jul-20 19:56 33.936198 -118.413753 262 969ft 166kts
19-Jul-20 19:57 33.929876 -118.477605 265 3503ft 247kts
19-Jul-20 19:58 33.923013 -118.562108 265 7450ft 261kts
19-Jul-20 19:59 33.939543 -118.642122 325 7987ft 269kts
19-Jul-20 20:00 34.008588 -118.676054 356 7988ft 277kts
19-Jul-20 20:01 34.086546 -118.669159 6 8965ft 291kts
19-Jul-20 20:02 34.166539 -118.650393 10 12703ft 303kts
19-Jul-20 20:03 34.251756 -118.634750 355 14980ft 322kts
19-Jul-20 20:04 34.349235 -118.655850 348 14983ft 366kts
19-Jul-20 20:05 34.449353 -118.678344 349 14984ft 366kts
19-Jul-20 20:06 34.551083 -118.697930 350 16875ft 377kts
19-Jul-20 20:07 34.656610 -118.718555 350 19678ft 392kts
19-Jul-20 20:08 34.761162 -118.758725 330 22090ft 406kts
19-Jul-20 20:09 34.860824 -118.827666 329 23055ft 417kts
19-Jul-20 20:10 34.961587 -118.897178 329 23089ft 417kts
19-Jul-20 20:11 35.062927 -118.967150 329 23285ft 423kts
19-Jul-20 20:12 35.165833 -119.038177 329 25529ft 431kts
19-Jul-20 20:13 35.271135 -119.111204 329 27375ft 442kts
19-Jul-20 20:14 35.379197 -119.186551 329 29007ft 452kts
19-Jul-20 20:15 35.493447 -119.254704 339 30414ft 464kts
19-Jul-20 20:16 35.615361 -119.308566 339 31875ft 468kts
19-Jul-20 20:17 35.736976 -119.362495 339 33538ft 464kts
19-Jul-20 20:18 35.857700 -119.416347 339 34985ft 461kts
19-Jul-20 20:19 35.977892 -119.470136 339 35867ft 459kts
19-Jul-20 20:20 36.097391 -119.523784 339 35873ft 460kts
19-Jul-20 20:21 36.217469 -119.577649 339 35873ft 460kts
19-Jul-20 20:23 36.337607 -119.631902 339 35873ft 460kts
19-Jul-20 20:24 36.457213 -119.686474 338 35873ft 459kts
19-Jul-20 20:25 36.576670 -119.740978 339 35875ft 459kts
19-Jul-20 20:26 36.696640 -119.795750 338 35880ft 459kts
19-Jul-20 20:27 36.816387 -119.850627 338 35883ft 465kts
19-Jul-20 20:28 36.942672 -119.894971 350 35883ft 477kts
19-Jul-20 20:29 37.074357 -119.915619 352 35886ft 478kts
19-Jul-20 20:30 37.206049 -119.935535 352 35918ft 478kts
19-Jul-20 20:31 37.337642 -119.955758 352 36047ft 477kts
19-Jul-20 20:32 37.469315 -119.976128 352 36090ft 477kts
19-Jul-20 20:33 37.600431 -119.996504 352 36093ft 477kts
19-Jul-20 20:34 37.731872 -120.016976 352 36090ft 478kts
19-Jul-20 20:35 37.863428 -120.037535 352 36086ft 478kts
19-Jul-20 20:36 37.995133 -120.058203 352 36105ft 478kts
19-Jul-20 20:37 38.126778 -120.078971 352 36100ft 478kts
19-Jul-20 20:38 38.257198 -120.106286 344 36089ft 477kts
19-Jul-20 20:39 38.383138 -120.156940 341 36094ft 475kts
19-Jul-20 20:40 38.508304 -120.208839 341 36079ft 475kts
19-Jul-20 20:40 38.612847 -120.252175 341 36037ft 474kts
19-Jul-20 20:42 38.758583 -120.312767 341 36014ft 473kts
19-Jul-20 20:43 38.883502 -120.364918 341 36013ft 472kts
19-Jul-20 20:43 38.986973 -120.408252 341 36069ft 471kts
19-Jul-20 20:44 39.111030 -120.460391 341 36212ft 469kts
19-Jul-20 20:46 39.255161 -120.520967 340 36248ft 468kts
19-Jul-20 20:46 39.358128 -120.564562 340 36250ft 466kts
19-Jul-20 20:47 39.480746 -120.616664 340 36250ft 466kts
19-Jul-20 20:48 39.603446 -120.669173 340 36237ft 465kts
19-Jul-20 20:49 39.726288 -120.722149 340 36176ft 466kts
19-Jul-20 20:50 39.848857 -120.774877 340 36153ft 466kts
19-Jul-20 20:51 39.971579 -120.827837 340 36152ft 466kts
19-Jul-20 20:52 40.094045 -120.880852 340 36152ft 462kts
19-Jul-20 20:53 40.215540 -120.933460 340 36148ft 462kts
19-Jul-20 20:54 40.337171 -120.986483 340 36112ft 462kts
19-Jul-20 20:55 40.459106 -121.039869 340 36068ft 462kts
19-Jul-20 20:56 40.580776 -121.093374 340 36034ft 462kts
19-Jul-20 20:57 40.702351 -121.147018 340 36004ft 462kts
19-Jul-20 20:58 40.823506 -121.200704 340 35990ft 461kts
19-Jul-20 20:59 40.944947 -121.254711 340 35985ft 461kts
19-Jul-20 21:00 41.065771 -121.308661 340 35985ft 460kts
19-Jul-20 21:01 41.186716 -121.362703 340 35985ft 459kts
19-Jul-20 21:02 41.307466 -121.416948 340 35986ft 458kts
19-Jul-20 21:03 41.427755 -121.471281 340 36037ft 458kts
19-Jul-20 21:04 41.547817 -121.525737 341 36088ft 457kts
19-Jul-20 21:05 41.667663 -121.580311 341 36094ft 456kts
19-Jul-20 21:06 41.787180 -121.634938 341 36094ft 456kts
19-Jul-20 21:07 41.907005 -121.690300 340 36094ft 455kts
19-Jul-20 21:08 42.026580 -121.745566 340 36096ft 455kts
19-Jul-20 21:09 42.145932 -121.800714 340 36102ft 454kts
19-Jul-20 21:10 42.264996 -121.855857 340 36102ft 454kts
19-Jul-20 21:11 42.384433 -121.911548 340 36102ft 454kts
19-Jul-20 21:12 42.503276 -121.967190 340 36093ft 454kts
19-Jul-20 21:13 42.622333 -122.023186 340 36066ft 454kts
19-Jul-20 21:14 42.741582 -122.079487 341 36053ft 454kts
19-Jul-20 21:15 42.860623 -122.135958 341 36037ft 454kts
19-Jul-20 21:16 42.979449 -122.192042 341 36017ft 454kts
19-Jul-20 21:17 43.098721 -122.247945 341 36013ft 453kts
19-Jul-20 21:18 43.217693 -122.303880 341 36026ft 453kts
19-Jul-20 21:19 43.336510 -122.360202 341 36038ft 452kts
19-Jul-20 21:20 43.453987 -122.416170 342 35673ft 436kts
19-Jul-20 21:21 43.567055 -122.470056 342 34677ft 430kts
19-Jul-20 21:22 43.680253 -122.524391 342 33680ft 433kts
19-Jul-20 21:23 43.794174 -122.579301 341 31733ft 437kts
19-Jul-20 21:24 43.910433 -122.635604 341 28624ft 445kts
19-Jul-20 21:25 44.025279 -122.691834 339 26447ft 430kts
19-Jul-20 21:26 44.136077 -122.743068 347 24277ft 414kts
19-Jul-20 21:27 44.251413 -122.742783 2 24043ft 416kts
19-Jul-20 21:28 44.366398 -122.731088 2 24041ft 415kts
19-Jul-20 21:29 44.479989 -122.719799 2 20601ft 402kts
19-Jul-20 21:30 44.586445 -122.709251 2 16746ft 362kts
19-Jul-20 21:31 44.682328 -122.699643 2 15672ft 340kts
19-Jul-20 21:32 44.775397 -122.690289 2 13962ft 331kts
19-Jul-20 21:33 44.865081 -122.681270 2 12307ft 318kts
19-Jul-20 21:34 44.951329 -122.672577 3 11011ft 294kts
19-Jul-20 21:35 45.032460 -122.664339 3 10952ft 295kts
19-Jul-20 21:36 45.113339 -122.656120 3 9552ft 285kts
19-Jul-20 21:37 45.190510 -122.648282 3 8214ft 273kts
19-Jul-20 21:38 45.263539 -122.629665 28 6890ft 267kts
19-Jul-20 21:39 45.325598 -122.573718 31 5598ft 262kts
19-Jul-20 21:40 45.384661 -122.520479 30 4757ft 235kts
19-Jul-20 21:41 45.435525 -122.474754 30 3740ft 195kts
19-Jul-20 21:42 45.481876 -122.444844 3 2326ft 181kts
19-Jul-20 21:43 45.525141 -122.474037 320 2111ft 170kts
19-Jul-20 21:44 45.552813 -122.517455 307 1069ft 129kts
19-Jul-20 21:45 45.570914 -122.559224 300 436ft 122kts
19-Jul-20 21:46 45.585249 -122.596036 297 38ft 19kts
19-Jul-20 21:47 45.587253 -122.595100 29 38ft 9kts

Navigation Log

Ident Type
Flight plan parsing failed, navigation log unavailable